Loisir ou Compétition : Rejoignez un Club de la Fédération

Résultats

GRAND PRIX INTERNATIONAL ** STE FOY TARENTAISE** FIS NJR

STE FOY TARENTAISE

GS Hommes

Jury de Compétition

Délégué Technique :
GALINIER JEAN-LOUIS (FRA)
Arbitre :
LAMORA GERARD (SPA)
Assistant :
 
Dir. Epreuve :
BONNEVIE CHRISTOPHE (FRA)

Caractéristiques de la Piste

Piste :
 
Départ :
2060
Arrivée :
1780
Dénivelé :
280
Homologation :
 

Manche 1

Nombre de Portes :
39
Heure de Départ :
8H45
Traceur :
CHARRIERE VINCENT (FRA)
Ouvreurs A :
BALLET MALKO (FRA)
Ouvreurs B :
AMET ARRIPE ALISON (FRA)
Ouvreurs C :
HARROP EMILY (FRA)
Ouvreurs D :
GAIDE SABRINA (FRA)
Ouvreurs E :
GRAND ANNA (FRA)
Temps :
BEAU
Neige :
DURE

Manche 2

Nombre de Portes :
39
Heure de Départ :
12H00
Traceur :
AVOCAT HERVE (FRA)
Ouvreurs A :
BALLET MALKO (FRA)
Ouvreurs B :
AMET ARRIPE ALISON (FRA)
Ouvreurs C :
HARROP EMILY (FRA)
Ouvreurs D :
GAIDE SABRINA (FRA)
Ouvreurs E :
GRAND ANNA (FRA)
Température Départ :
 
Température Arrivée :
+3

Pénalité Appliquée :
19.8300

Catégorie :
Cad+Jun
Clt Dos Clt/Cat Code An Nom Prénom Nat Com Club Tps M1 Tps M2 Tps Tot Pts
Classés
1 14 1/Jun FIS194457 1992 GALEOTTI Greg FRA SA SC ARECHES 55.30 56.23 1:51.53 19.83
2 11 2/Jun FIS194332 1991 MARICAL Antoine FRA EQ SC TANINGES 55.65 56.14 1:51.79 21.86
3 3 3/Jun FIS194364 1991 PINTURAULT Alexis FRA EQ COURCHEVEL 55.32 56.61 1:51.93 22.95
4 8 4/Jun FIS194495 1992 FAIVRE Mathieu FRA EQ ISOLA 2000 55.90 56.09 1:51.99 23.42
5 16 5/Jun FIS194666 1993 DELBERGHE Willy FRA EQ SC MERIBEL 55.71 56.36 1:52.07 24.04
6 15 6/Jun FIS194289 1991 FAVRE MARGOT Gerome FRA MB SC CHAPELLE 56.22 55.91 1:52.13 24.51
7 10 7/Jun FIS194262 1991 BUFFET Robin FRA MB CS LA CLUSAZ 55.96 56.46 1:52.42 26.77
8 4 8/Jun FIS194259 1991 BRAISAZ Simon FRA SA CS SAISIES 55.61 56.86 1:52.47 27.16
9 6 9/Jun FIS194686 1993 FABRE Jonas FRA EQ SC ALPE HUEZ 55.78 56.76 1:52.54 27.71
10 1 10/Jun FIS194450 1992 SAATDJIAN Nicolas FRA SA CS LA PLAGNE 55.41 57.31 1:52.72 29.11
10 5 10/Jun FIS194449 1992 GRAND Guillaume FRA SA CS LA PLAGNE 55.72 57.00 1:52.72 29.11
12 18 12/Jun FIS194298 1991 GIEZENDANNER Blaise FRA MB CS CHAMONIX 56.16 56.70 1:52.86 30.20
13 26 13/Jun FIS194650 1993 PICCARD Roy FRA SA CS SAISIES 56.55 56.44 1:52.99 31.22
14 12 14/Jun FIS491501 1991 ROCAMORA Pol SPA 56.53 56.50 1:53.03 31.53
15 23 15/Jun FIS194630 1993 BERTRAND Dimitri FRA MB SC MORZ AVO 56.69 56.45 1:53.14 32.39
16 20 1/Cad FIS194866 1994 GALAND NOE Antoine FRA AP GAP ORCIERES 57.26 56.24 1:53.50 35.20
17 21 16/Jun FIS194596 1992 GROSSET GRANGE Denis FRA SA SCOBE ALBERT 57.23 56.36 1:53.59 35.90
18 9 17/Jun FIS194542 1992 GIRAUD MOINE Valentin FRA EQ EC CHAMPSAUR 57.53 56.26 1:53.79 37.46
19 19 18/Jun FIS194340 1991 MILESI Anthony FRA MB SC GD BORNAN 57.02 56.93 1:53.95 38.71
20 57 2/Cad FIS194898 1994 PERRET Alexis FRA SA ST FRANCOIS 56.96 57.09 1:54.05 39.49
21 46 3/Cad FIS6190006 1995 SCHULLER Victor FRA SA VAL D'ISERE 57.16 57.06 1:54.22 40.81
22 31 19/Jun FIS194664 1993 RIZZO Maxime FRA SA SC LES ARCS 57.03 57.21 1:54.24 40.97
23 25 4/Cad FIS194935 1994 FAVROT Thibaut FRA MV SKI STRASBOU 56.86 57.44 1:54.30 41.44
24 37 20/Jun FIS194676 1993 MOUGEL Youri FRA AP SERRE CHEVAL 57.59 56.73 1:54.32 41.59
25 51 5/Cad FIS6190079 1995 ALLIOT LUGAZ Baptiste FRA SA ND BELLECOMB 57.67 57.11 1:54.78 45.18
26 24 21/Jun FIS194577 1992 SENOT Florentin FRA MB JEAN D'AULPS 57.54 57.26 1:54.80 45.34
27 54 6/Cad FIS194901 1994 PETIT Thibaut FRA SA SC MERIBEL 57.46 57.38 1:54.84 45.65
28 55 7/Cad FIS6190071 1995 HERPIN Leny FRA SA CS SAISIES 57.82 57.30 1:55.12 47.83
29 47 8/Cad FIS6190074 1995 GATEAU Elie FRA SA SC MERIBEL 57.87 57.31 1:55.18 48.30
30 58 9/Cad FIS194838 1994 BAILLY SALINS Guillaume FRA MB SC COMBLOUX 57.93 57.33 1:55.26 48.93
31 34 10/Cad FIS194886 1994 MERCIER Alexis FRA SA CS TIGNES 57.70 57.68 1:55.38 49.86
32 29 22/Jun FIS194628 1993 VERRIER Camille FRA MB CS CHAMONIX 57.65 57.81 1:55.46 50.49
33 17 11/Cad FIS194858 1994 ALLEGRE Nils FRA AP SERRE CHEVAL 58.34 57.40 1:55.74 52.67
34 52 12/Cad FIS194897 1994 LORIOT Romain FRA SA ST FRANCOIS 57.95 57.85 1:55.80 53.14
35 30 23/Jun FIS194453 1992 GAIDET Pierre FRA SA US ROSIERE 57.61 58.32 1:55.93 54.15
36 65 13/Cad FIS194895 1994 CLAIR Titouan FRA SA VAL D'ISERE 57.90 58.09 1:55.99 54.62
37 42 14/Cad FIS194871 1994 RICOU Ivo FRA AP ORC MERLETTE 58.22 58.07 1:56.29 56.96
38 27 24/Jun FIS194620 1993 YOUT Baptiste FRA MB CS MEGEVE 58.13 58.26 1:56.39 57.74
39 80 15/Cad FIS6190091 1995 BOURGEOIS ROMAIN Simon FRA SA CREST VOLAND 58.33 58.14 1:56.47 58.36
40 61 16/Cad FIS6190131 1995 BERLA Franck FRA AP ES VALLOUISE 58.65 58.51 1:57.16 63.75
41 44 25/Jun FIS194615 1993 DORIEZ Nicolas FRA MB SC CARROZ 58.63 58.72 1:57.35 65.23
42 72 17/Cad FIS6190065 1995 NANTERMOZ Thomas FRA SA SC ARECHES 58.45 58.95 1:57.40 65.62
43 64 18/Cad FIS6190017 1995 FRICK Medhi Yan FRA AP SERRE CHEVAL 58.77 58.64 1:57.41 65.70
44 53 19/Cad FIS194890 1994 HOEN Benoit FRA SA CS LA PLAGNE 58.44 59.10 1:57.54 66.71
44 89 19/Cad FIS194983 1995 VUILLEMIN Corentin FRA MB SC ST GERVAI 58.71 58.83 1:57.54 66.71
46 48 21/Cad FIS194819 1994 ACHARD Florian FRA DA LANS VERCORS 59.22 58.48 1:57.70 67.96
47 78 22/Cad FIS6190076 1995 GUIPPONI BARFETY Morgan FRA SA SC CHAMPAGNY 59.20 58.52 1:57.72 68.12
48 49 23/Cad FIS221112 1994 MOYNIHAN Nicholas GBR 58.60 59.32 1:57.92 69.68
49 79 24/Cad FIS194927 1994 MOREL Charles FRA MJ VAL MORTEAU 59.55 58.43 1:57.98 70.14
50 103 25/Cad FIS6190072 1995 BONNEFOND Tom FRA SA CS SAISIES 59.37 58.93 1:58.30 72.64
51 76 26/Cad FIS194868 1994 HUBAUD Maxime FRA AP EC CHAMPSAUR 59.49 58.96 1:58.45 73.81
52 73 27/Cad FIS194888 1994 AURARD Corentin FRA SA CO VAL THO 58.96 59.73 1:58.69 75.68
53 70 28/Cad FIS512066 1994 IN ALBON Flavio SUI 59.45 59.29 1:58.74 76.07
54 28 29/Cad FIS194852 1994 MABBOUX Jeremy FRA MB CS MEGEVE 58.36 1:00.63 1:58.99 78.02
55 62 30/Cad FIS512068 1994 LUGINBUEHL Nico SUI 59.24 1:00.05 1:59.29 80.36
56 96 31/Cad FIS194998 1995 DAITA Junior FRA MB SC COMBLOUX 1:00.10 59.25 1:59.35 80.83
57 67 32/Cad FIS194923 1994 VOISIN Nathan FRA MB ASPTT ANNECY 59.52 1:00.09 1:59.61 82.86
58 82 33/Cad FIS512111 1995 KUONEN Lars SUI 59.39 1:00.25 1:59.64 83.09
59 84 34/Cad FIS6190042 1995 PIJOLET Jules FRA DA SC ALPE HUEZ 1:00.10 59.63 1:59.73 83.79
60 85 35/Cad FIS6190043 1995 JOURDAN Maxime FRA DA SC ALPE HUEZ 1:00.22 59.81 2:00.03 86.14
61 71 36/Cad FIS6190010 1995 AUGUSTIN Clement FRA AP SAUZE BARCEL 1:00.21 59.83 2:00.04 86.21
62 74 37/Cad FIS512107 1995 BELLONI Fabio SUI 59.61 1:00.63 2:00.24 87.77
63 97 38/Cad FIS194845 1994 REGARD Damien FRA MB SC CARROZ 1:00.47 59.88 2:00.35 88.63
64 86 39/Cad FIS194889 1994 COMBREAS Sydney FRA SA CS LA PLAGNE 1:00.20 1:00.52 2:00.72 91.52
65 63 26/Jun FIS194727 1993 RAYBAUD Adrien FRA CA INTER CLUB 59.43 1:01.36 2:00.79 92.06
66 102 40/Cad FIS194850 1994 MATELON Quentin FRA MB CS MANIGOD 1:00.88 59.96 2:00.84 92.45
67 90 41/Cad FIS6190023 1995 TRILLES Quentin FRA AP ORRES EMBRUN 1:00.70 1:00.15 2:00.85 92.53
68 106 42/Cad FIS6190009 1995 COUTELEN Jan Alexis FRA AP ST ANTOINE 1:00.57 1:00.55 2:01.12 94.64
69 109 43/Cad FIS194986 1995 CHIRAT Ivan FRA MB SC GD BORNAN 1:00.88 1:00.87 2:01.75 99.55
70 93 44/Cad FIS6190125 1995 BOULLOUD Robin FRA DA SC OZ-ALLEMO 1:01.34 1:00.91 2:02.25 103.45
71 115 45/Cad FIS6190063 1995 PONTHIEU Thibault FRA SA US ROSIERE 1:01.29 1:01.27 2:02.56 105.87
72 81 46/Cad FIS512102 1995 WENGER Adrian SUI 1:01.31 1:01.37 2:02.68 106.81
73 111 47/Cad FIS6190038 1995 SANSON Thibault FRA SA CS TIGNES 1:01.38 1:01.42 2:02.80 107.74
74 99 48/Cad FIS194985 1995 LITNIANSKI Clement FRA MB CS LA CLUSAZ 1:02.48 1:00.74 2:03.22 111.02
75 112 49/Cad FIS194993 1995 VOISIN Tanguy FRA MB ASPTT ANNECY 1:01.64 1:01.64 2:03.28 111.49
76 107 50/Cad FIS6190044 1995 TERRAGE Damien FRA DA SC ALPE HUEZ 1:02.02 1:01.44 2:03.46 112.89
77 113 51/Cad FIS194997 1995 CHOPIN Victor FRA MB SC GD BORNAN 1:02.16 1:01.66 2:03.82 115.70
Abandons
2 FIS194554 1992 BON BETEND Valentin FRA MB SC GD BORNAN
13 FIS194558 1992 DELAHAYE Clement FRA MB SC GD BORNAN
22 FIS194894 1994 ARPIN Gaetan FRA SA VAL D'ISERE
32 FIS194892 1994 CASTELLON Rudy FRA SA SC MENUIRES
33 FIS194873 1994 SARRAZIN Cyprien FRA AP EC CHAMPSAUR 57.26
35 FIS194672 1993 CHAMPIOT Robin FRA AP SERRE CHEVAL 58.22
36 FIS194455 1992 MAITRE Thomas FRA SA US ROSIERE
38 FIS194458 1992 CIUDAD Quentin FRA SA SC LES ARCS
39 FIS194869 1994 JOIN Sebastien FRA AP SERRE CHEVAL
40 FIS194823 1994 VANDEL Thomas FRA DA CHAMROUSSE S
43 FIS194849 1994 COULET Gabriel FRA MB LES HOUCHES
45 FIS194847 1994 JORDANIS Robin FRA MB LES GETS S.C
50 FIS194631 1993 BARBIN Guillaume FRA MB CS LA CLUSAZ
56 FIS194568 1992 LOYE Arthur FRA MB SC MORZ AVO
59 FIS194618 1993 DUVILLARD Quentin FRA MB CS MEGEVE
60 FIS370031 1993 ALESSANDRIA Arnaud MON
66 FIS194843 1994 CHASSAING Etienne FRA MB CS LA CLUSAZ
68 FIS194851 1994 SANTEIX Louis FRA MB CS MANIGOD
69 FIS194891 1994 PIANTONI Axel FRA SA SC MENUIRES
83 FIS6190041 1995 HENRI Martin FRA DA CO SEPT LAUX
88 FIS194984 1995 GAUTHIER Thibaut FRA MB CS LA CLUSAZ
91 FIS6190046 1995 SALERNO Hugo FRA DA CHAMROUSSE S
92 FIS6190062 1995 PERRIER Paul FRA SA CS TIGNES
95 FIS194735 1993 LEDUC Maxime FRA MV US VENTRON
98 FIS194893 1994 PERRET Arnaud FRA SA SC LES ARCS
100 FIS194821 1994 SARRET Antonin FRA DA SC ALPE HUEZ 59.64
104 FIS6190070 1995 HOUBRE Axel FRA SA STE FOY TSE
105 FIS194610 1993 PESSEY Anton FRA MB SC GD BORNAN
108 FIS6190118 1995 BOUSSON Louis FRA SA CS MTCHAVIN 1:00.49
110 FIS512112 1995 LAGGER Marc SUI
114 FIS194950 1994 GALINIER Clement FRA SA SC AIX
Non partants
7 FIS194381 1991 ROLLAND Mathias FRA EQ COURCHEVEL
41 FIS194653 1993 CANANZI Yoann FRA SA S.H MODANE-V 59.02
75 FIS6190092 1995 BOURGEOIS ROMAIN Quentin FRA SA CREST VOLAND 1:04.03
77 FIS194854 1994 VALENTE DELPLACE Quentin FRA MB SC ST GERVAI 1:00.30
87 FIS6190082 1995 NOUVEL Jacques FRA SA SC LES ARCS
94 FIS6190002 1995 BLOCH Gaspard FRA MV VT MULHOUSE 59.66
101 FIS6190073 1995 FORNI Pierre FRA SA SC MERIBEL